Pacific Fantasy — A8MV6 — position and weather

sailwx.info

Track history (hours):
 
Tides and Currents Weather Stations Pressure Air Temp Water Temp Dewpoint Dewpoint Depression Visibility Wind Speed Wind Dir Waves Ship Positions

Pacific Fantasy

Last reported at 2016-Jan-14 22:28 UTC. Time now 2016-Jun-27 20:25 UTC.
Position N 35°55' E 025°31'.
Warning: this ship's position is months out of date.

Length 180 m; draft 6.5 m.

Type: Cargo ship. MMSI: 636013744.

Date/timePositionNaut miles runAvg speedWind from/ knotsBaromVisibWave heightAir tempDewpointWater temp
2016-Jan-14 22:28N 35°55' E 025°31'1213.2
2016-Jan-14 21:33N 36°01' E 025°18'1313.3
2016-Jan-14 20:33N 36°08' E 025°04'1312.7
2016-Jan-14 19:33N 36°16' E 024°51'9212.3
2016-Jan-14 12:06N 37°31' E 023°45'713.4
2016-Jan-14 11:34N 37°38' E 023°43'1312.9
2016-Jan-14 10:34N 37°50' E 023°35'5 4.5
2016-Jan-14 09:31N 37°53' E 023°31'0 0.0
2016-Jan-14 08:31N 37°53' E 023°31'0 0.0
2016-Jan-14 07:28N 37°53' E 023°31'0 0.0
2016-Jan-14 06:28N 37°53' E 023°31'0 0.0
2016-Jan-14 05:31N 37°53' E 023°31'0 0.0
2016-Jan-14 04:31N 37°53' E 023°31'0 0.0
2016-Jan-14 03:33N 37°53' E 023°31'0 0.0
2016-Jan-14 02:33N 37°53' E 023°31'0 0.0
2016-Jan-14 01:33N 37°53' E 023°31'0 0.0
2016-Jan-14 00:33N 37°53' E 023°31'0 0.0
2016-Jan-13 23:33N 37°53' E 023°31'0 0.1
2016-Jan-13 22:33N 37°53' E 023°31'0 0.0
2016-Jan-13 21:33N 37°53' E 023°31'1 1.0
2016-Jan-13 20:33N 37°52' E 023°31'1 1.2
2016-Jan-13 19:33N 37°51' E 023°31'0 0.4
2016-Jan-13 18:33N 37°50' E 023°31'4 3.9
2016-Jan-13 17:33N 37°50' E 023°36'7 6.8
2016-Jan-13 16:33N 37°46' E 023°42'7 7.4
2016-Jan-13 15:33N 37°39' E 023°46'170 7.9
2016-Jan-12 18:07N 38°09' E 020°14'  
Track history (hours):
 
Tides and Currents Weather Stations Pressure Air Temp Water Temp Dewpoint Dewpoint Depression Visibility Wind Speed Wind Dir Waves Ship Positions

Pacific Fantasy

Last reported at 2016-Jan-14 22:28 UTC. Time now 2016-Jun-27 20:25 UTC.
Position N 35°55' E 025°31'.
Warning: this ship's position is months out of date.

Length 180 m; draft 6.5 m.

Type: Cargo ship. MMSI: 636013744.

Date/timePositionNaut miles runAvg speedWind from/ knotsBaromVisibWave heightAir tempDewpointWater temp
2016-Jan-14 22:28N 35°55' E 025°31'1213.2
2016-Jan-14 21:33N 36°01' E 025°18'1313.3
2016-Jan-14 20:33N 36°08' E 025°04'1312.7
2016-Jan-14 19:33N 36°16' E 024°51'9212.3
2016-Jan-14 12:06N 37°31' E 023°45'713.4
2016-Jan-14 11:34N 37°38' E 023°43'1312.9
2016-Jan-14 10:34N 37°50' E 023°35'5 4.5
2016-Jan-14 09:31N 37°53' E 023°31'0 0.0
2016-Jan-14 08:31N 37°53' E 023°31'0 0.0
2016-Jan-14 07:28N 37°53' E 023°31'0 0.0
2016-Jan-14 06:28N 37°53' E 023°31'0 0.0
2016-Jan-14 05:31N 37°53' E 023°31'0 0.0
2016-Jan-14 04:31N 37°53' E 023°31'0 0.0
2016-Jan-14 03:33N 37°53' E 023°31'0 0.0
2016-Jan-14 02:33N 37°53' E 023°31'0 0.0
2016-Jan-14 01:33N 37°53' E 023°31'0 0.0
2016-Jan-14 00:33N 37°53' E 023°31'0 0.0
2016-Jan-13 23:33N 37°53' E 023°31'0 0.1
2016-Jan-13 22:33N 37°53' E 023°31'0 0.0
2016-Jan-13 21:33N 37°53' E 023°31'1 1.0
2016-Jan-13 20:33N 37°52' E 023°31'1 1.2
2016-Jan-13 19:33N 37°51' E 023°31'0 0.4
2016-Jan-13 18:33N 37°50' E 023°31'4 3.9
2016-Jan-13 17:33N 37°50' E 023°36'7 6.8
2016-Jan-13 16:33N 37°46' E 023°42'7 7.4
2016-Jan-13 15:33N 37°39' E 023°46'170 7.9
2016-Jan-12 18:07N 38°09' E 020°14'  

Dump ship's entire track history